Time;durP1;ratioP1;P1;durP2;ratioP2;P2;SDS_P1;SDS_P2;PMS_P1;PMS_P2;Temp;Humidity;BMP_temperature;BMP_pressure;BME280_temperature;BME280_humidity;BME280_pressure;Samples;Min_cycle;Max_cycle;Signal;HPM_P1;HPM_P2
2023/12/01 00:02:15;;;;;;;1.67;0.90;;;20.70;51.60;;;;;;5018770;28;20026;-69
2023/12/01 00:04:41;;;;;;;1.65;0.90;;;20.80;51.70;;;;;;5036046;28;20030;-69
2023/12/01 00:07:07;;;;;;;1.40;1.00;;;20.70;51.70;;;;;;5037935;28;20028;-69
2023/12/01 00:09:33;;;;;;;1.38;1.00;;;20.70;51.70;;;;;;5035422;28;20037;-69
2023/12/01 00:11:58;;;;;;;1.50;0.90;;;20.70;51.80;;;;;;5036652;28;20029;-70
2023/12/01 00:14:24;;;;;;;1.60;0.90;;;20.70;51.90;;;;;;5036008;27;20067;-68
2023/12/01 00:16:50;;;;;;;1.45;0.90;;;20.60;51.90;;;;;;5034767;28;20049;-69
2023/12/01 00:19:15;;;;;;;0.95;0.80;;;20.60;52.00;;;;;;5036108;28;20111;-69
2023/12/01 00:21:41;;;;;;;1.95;1.10;;;20.60;52.00;;;;;;5037146;28;20468;-69
2023/12/01 00:24:06;;;;;;;2.55;0.90;;;20.50;52.10;;;;;;5017053;28;20422;-69
2023/12/01 00:26:32;;;;;;;2.28;1.10;;;20.50;52.10;;;;;;5034294;28;20045;-70
2023/12/01 00:28:58;;;;;;;1.48;0.90;;;20.50;52.20;;;;;;5035162;28;20467;-69
2023/12/01 00:31:24;;;;;;;1.20;0.90;;;20.50;52.20;;;;;;5035308;28;20388;-69
2023/12/01 00:33:51;;;;;;;1.75;1.00;;;20.40;52.20;;;;;;5033570;28;20548;-69
2023/12/01 00:36:16;;;;;;;1.23;0.90;;;20.40;52.30;;;;;;5033583;28;20100;-69
2023/12/01 00:38:42;;;;;;;1.80;1.10;;;20.40;52.30;;;;;;5035528;28;20171;-69
2023/12/01 00:41:08;;;;;;;1.83;1.10;;;20.40;52.30;;;;;;5016654;28;20490;-70
2023/12/01 00:43:33;;;;;;;1.48;1.00;;;20.30;52.40;;;;;;5036688;28;20033;-68
2023/12/01 00:45:59;;;;;;;1.45;0.80;;;20.30;52.40;;;;;;5036081;28;20034;-70
2023/12/01 00:48:24;;;;;;;1.95;1.10;;;20.30;52.40;;;;;;5033432;28;20081;-69
2023/12/01 00:50:52;;;;;;;1.27;0.90;;;20.30;52.50;;;;;;5033392;28;20032;-69
2023/12/01 00:53:18;;;;;;;2.58;1.00;;;20.20;52.50;;;;;;5036312;28;20021;-69
2023/12/01 00:55:43;;;;;;;1.70;0.90;;;20.20;52.50;;;;;;5034379;28;20377;-63
2023/12/01 00:58:09;;;;;;;1.20;0.90;;;20.30;52.60;;;;;;5019302;28;20075;-64
2023/12/01 01:00:35;;;;;;;1.83;1.45;;;20.20;52.60;;;;;;5034180;28;20038;-63
2023/12/01 01:03:01;;;;;;;1.30;1.00;;;20.20;52.70;;;;;;5035530;28;20033;-63
2023/12/01 01:05:26;;;;;;;1.63;1.10;;;20.20;52.80;;;;;;5036248;28;20021;-63
2023/12/01 01:07:52;;;;;;;2.17;0.90;;;20.10;52.70;;;;;;5036045;28;20033;-62
2023/12/01 01:10:17;;;;;;;1.33;0.93;;;20.10;52.80;;;;;;5036729;28;20068;-62
2023/12/01 01:12:43;;;;;;;1.48;0.90;;;20.10;52.80;;;;;;5035426;28;20765;-62
2023/12/01 01:15:09;;;;;;;1.33;1.00;;;20.10;52.80;;;;;;5036002;28;20033;-65
2023/12/01 01:17:34;;;;;;;1.35;0.90;;;20.10;52.90;;;;;;5035654;28;20484;-62
2023/12/01 01:20:00;;;;;;;1.45;0.90;;;20.10;52.90;;;;;;5036255;28;20029;-62
2023/12/01 01:22:26;;;;;;;1.52;1.00;;;20.00;52.90;;;;;;5034765;28;20575;-64
2023/12/01 01:24:52;;;;;;;1.58;0.90;;;20.00;52.90;;;;;;5036683;28;20044;-62
2023/12/01 01:27:18;;;;;;;1.23;1.00;;;20.00;53.00;;;;;;5035620;28;20048;-63
2023/12/01 01:29:44;;;;;;;1.92;0.90;;;20.00;53.00;;;;;;5015729;28;20098;-64
2023/12/01 01:32:11;;;;;;;0.88;0.80;;;20.00;53.00;;;;;;5032339;28;20353;-64
2023/12/01 01:34:37;;;;;;;1.52;1.00;;;19.90;53.00;;;;;;5018744;28;20068;-69
2023/12/01 01:37:02;;;;;;;1.35;0.93;;;19.90;53.10;;;;;;5035400;28;20057;-70
2023/12/01 01:39:28;;;;;;;1.10;0.90;;;19.90;53.10;;;;;;5020510;28;20124;-69
2023/12/01 01:41:56;;;;;;;1.48;0.80;;;19.90;53.10;;;;;;5042107;28;20048;-69
2023/12/01 01:44:22;;;;;;;1.90;1.05;;;19.90;53.20;;;;;;5040111;28;20029;-69
2023/12/01 01:46:50;;;;;;;1.08;0.85;;;19.80;53.20;;;;;;5038330;28;20025;-69
2023/12/01 01:49:23;;;;;;;1.00;0.80;;;19.80;53.70;;;;;;5038591;28;20049;-69
2023/12/01 01:51:49;;;;;;;2.20;0.88;;;19.80;53.20;;;;;;5038416;28;20033;-69
2023/12/01 01:54:15;;;;;;;1.20;0.88;;;19.80;53.20;;;;;;5040654;28;20043;-69
2023/12/01 01:56:41;;;;;;;1.10;0.90;;;19.80;53.30;;;;;;5039161;28;20033;-69
2023/12/01 01:59:07;;;;;;;1.83;0.90;;;19.80;53.30;;;;;;5036407;28;20062;-69
2023/12/01 02:01:32;;;;;;;1.23;0.90;;;19.80;53.40;;;;;;5037265;28;20445;-69
2023/12/01 02:03:58;;;;;;;1.55;0.90;;;19.70;53.30;;;;;;5038213;28;20426;-69
2023/12/01 02:06:30;;;;;;;1.33;0.90;;;19.70;53.30;;;;;;5037160;28;20041;-63
2023/12/01 02:08:57;;;;;;;1.27;0.85;;;19.70;53.40;;;;;;5037992;28;20053;-62
2023/12/01 02:11:25;;;;;;;1.30;1.00;;;19.70;53.40;;;;;;5036495;28;20388;-63
2023/12/01 02:13:51;;;;;;;1.23;0.90;;;19.70;53.50;;;;;;5038775;28;20032;-63
2023/12/01 02:16:17;;;;;;;1.02;0.90;;;19.70;53.50;;;;;;5039401;28;20063;-64
2023/12/01 02:18:43;;;;;;;1.05;0.85;;;19.70;53.50;;;;;;5037562;28;20032;-64
2023/12/01 02:21:09;;;;;;;1.98;1.00;;;19.60;53.50;;;;;;5037021;28;20148;-62
2023/12/01 02:23:34;;;;;;;1.27;0.82;;;19.60;53.50;;;;;;5020826;28;20112;-62
2023/12/01 02:26:01;;;;;;;1.20;0.93;;;19.60;53.60;;;;;;5038289;28;20036;-63
2023/12/01 02:28:26;;;;;;;1.42;0.90;;;19.60;53.60;;;;;;5035954;28;20052;-64
2023/12/01 02:30:54;;;;;;;1.50;0.95;;;19.60;53.70;;;;;;5038823;28;20323;-64
2023/12/01 02:33:20;;;;;;;1.40;1.00;;;19.60;53.70;;;;;;5038236;28;20025;-62
2023/12/01 02:35:47;;;;;;;1.50;0.90;;;19.60;53.70;;;;;;5039729;28;20443;-63
2023/12/01 02:38:13;;;;;;;1.17;0.80;;;19.60;53.70;;;;;;5038465;28;20507;-63
2023/12/01 02:40:49;;;;;;;1.75;1.10;;;19.50;53.70;;;;;;5038785;28;20032;-62
2023/12/01 02:43:19;;;;;;;1.80;0.90;;;19.50;53.70;;;;;;5037823;28;20036;-64
2023/12/01 02:45:45;;;;;;;1.88;0.90;;;19.50;53.70;;;;;;5039387;28;20483;-63
2023/12/01 02:48:10;;;;;;;1.25;1.00;;;19.50;53.80;;;;;;5035716;28;20049;-64
2023/12/01 02:50:37;;;;;;;1.60;0.90;;;19.50;53.80;;;;;;5036644;28;20336;-63
2023/12/01 02:53:04;;;;;;;1.08;0.80;;;19.50;53.80;;;;;;5038289;28;20044;-65
2023/12/01 02:55:30;;;;;;;1.40;0.90;;;19.50;53.80;;;;;;5036738;28;20029;-63
2023/12/01 02:57:56;;;;;;;1.25;1.00;;;19.50;53.90;;;;;;5036042;28;20022;-63
2023/12/01 03:00:22;;;;;;;1.02;0.80;;;19.50;53.90;;;;;;5036956;28;20050;-62
2023/12/01 03:02:49;;;;;;;1.50;0.90;;;19.40;53.90;;;;;;5037550;28;20018;-64
2023/12/01 03:05:15;;;;;;;1.20;0.80;;;19.40;53.90;;;;;;5036369;28;20388;-62
2023/12/01 03:07:41;;;;;;;1.70;0.90;;;19.40;53.90;;;;;;5038308;28;20030;-63
2023/12/01 03:10:08;;;;;;;1.50;0.90;;;19.40;53.90;;;;;;5039444;28;20021;-62
2023/12/01 03:12:37;;;;;;;0.93;0.82;;;19.40;54.00;;;;;;5039022;28;20018;-64
2023/12/01 03:15:07;;;;;;;1.48;1.00;;;19.40;54.00;;;;;;5039491;28;20108;-69
2023/12/01 03:17:33;;;;;;;1.20;0.80;;;19.40;54.00;;;;;;5035162;28;20033;-69
2023/12/01 03:19:59;;;;;;;1.50;0.80;;;19.40;54.10;;;;;;5038204;28;20149;-69
2023/12/01 03:22:24;;;;;;;1.33;0.90;;;19.30;54.00;;;;;;5036271;28;20024;-69
2023/12/01 03:24:50;;;;;;;1.65;0.90;;;19.30;54.00;;;;;;5037659;28;20396;-70
2023/12/01 03:27:20;;;;;;;1.23;0.80;;;19.30;54.00;;;;;;5038288;28;20115;-69
2023/12/01 03:29:46;;;;;;;1.75;1.08;;;19.30;54.10;;;;;;5039634;28;20033;-69
2023/12/01 03:32:11;;;;;;;0.95;0.80;;;19.30;54.10;;;;;;5037686;28;20508;-69
2023/12/01 03:34:37;;;;;;;1.20;0.82;;;19.30;54.20;;;;;;5036236;28;20033;-69
2023/12/01 03:37:03;;;;;;;0.90;0.75;;;19.30;54.20;;;;;;5019963;28;20480;-69
2023/12/01 03:39:30;;;;;;;1.20;0.80;;;19.30;54.20;;;;;;5034989;28;20311;-69
2023/12/01 03:41:56;;;;;;;1.42;1.00;;;19.30;54.20;;;;;;5035948;28;20481;-69
2023/12/01 03:44:21;;;;;;;1.20;0.90;;;19.30;54.20;;;;;;5035634;28;20060;-69
2023/12/01 03:46:47;;;;;;;1.15;0.80;;;19.30;54.30;;;;;;5037023;28;20025;-64
2023/12/01 03:49:13;;;;;;;1.40;1.00;;;19.20;54.20;;;;;;5035218;28;20477;-63
2023/12/01 03:51:39;;;;;;;1.30;0.80;;;19.20;54.20;;;;;;5034512;28;20036;-63
2023/12/01 03:54:05;;;;;;;0.90;0.80;;;19.20;54.30;;;;;;5036690;28;20470;-62
2023/12/01 03:56:31;;;;;;;1.13;0.90;;;19.20;54.30;;;;;;5035349;28;20120;-64
2023/12/01 03:58:56;;;;;;;0.98;0.80;;;19.20;54.30;;;;;;5036198;28;20025;-64
2023/12/01 04:01:31;;;;;;;1.25;0.73;;;19.20;54.30;;;;;;5034634;28;20064;-63
2023/12/01 04:03:56;;;;;;;0.98;0.80;;;19.20;54.40;;;;;;5035120;28;20420;-65
2023/12/01 04:06:22;;;;;;;0.60;0.60;;;19.20;54.30;;;;;;5036101;28;20029;-63
2023/12/01 04:08:48;;;;;;;0.90;0.80;;;19.20;54.30;;;;;;5034925;28;20521;-62
2023/12/01 04:11:15;;;;;;;1.13;0.80;;;19.20;54.40;;;;;;5036024;28;20024;-63
2023/12/01 04:13:41;;;;;;;1.75;0.95;;;19.20;54.40;;;;;;5019192;28;20057;-62
2023/12/01 04:16:08;;;;;;;1.08;0.85;;;19.20;54.50;;;;;;5035933;28;20456;-63
2023/12/01 04:18:35;;;;;;;1.40;0.90;;;19.20;54.40;;;;;;5034500;28;20097;-64
2023/12/01 04:21:07;;;;;;;1.08;0.80;;;19.20;54.40;;;;;;5018790;28;20036;-64
2023/12/01 04:23:34;;;;;;;1.08;0.90;;;19.10;54.40;;;;;;5017524;28;20105;-63
2023/12/01 04:26:00;;;;;;;1.17;0.90;;;19.20;54.50;;;;;;5036712;28;20124;-63
2023/12/01 04:28:26;;;;;;;0.98;0.70;;;19.20;54.50;;;;;;5037096;28;20025;-63
2023/12/01 04:30:52;;;;;;;1.13;0.82;;;19.10;54.50;;;;;;5034247;28;20395;-63
2023/12/01 04:33:18;;;;;;;1.15;0.82;;;19.10;54.50;;;;;;5034309;28;20537;-64
2023/12/01 04:35:44;;;;;;;0.80;0.80;;;19.10;54.50;;;;;;5018551;28;20112;-62
2023/12/01 04:38:09;;;;;;;0.82;0.70;;;19.10;54.50;;;;;;5034984;28;20033;-63
2023/12/01 04:40:39;;;;;;;1.00;0.80;;;19.10;54.50;;;;;;5038868;28;20025;-63
2023/12/01 04:43:05;;;;;;;0.90;0.70;;;19.10;55.00;;;;;;5034866;28;20028;-63
2023/12/01 04:45:36;;;;;;;1.27;0.73;;;19.10;54.50;;;;;;5034790;28;20026;-63
2023/12/01 04:48:02;;;;;;;0.95;0.80;;;19.10;54.50;;;;;;5036218;28;20453;-62
2023/12/01 04:50:31;;;;;;;0.93;0.70;;;19.10;54.50;;;;;;5035243;28;20036;-64
2023/12/01 04:53:00;;;;;;;0.82;0.70;;;19.10;54.60;;;;;;5036162;28;20112;-64
2023/12/01 04:55:28;;;;;;;0.70;0.70;;;19.10;54.60;;;;;;5035432;28;20029;-64
2023/12/01 04:57:55;;;;;;;0.82;0.70;;;19.10;54.70;;;;;;5033920;28;20110;-63
2023/12/01 05:00:23;;;;;;;0.98;0.70;;;19.10;54.70;;;;;;5035896;28;20481;-63
2023/12/01 05:02:51;;;;;;;0.82;0.63;;;19.10;54.70;;;;;;5036773;28;20021;-63
2023/12/01 05:05:18;;;;;;;1.00;0.80;;;19.00;54.70;;;;;;5035383;28;20496;-64
2023/12/01 05:07:44;;;;;;;1.20;0.70;;;19.00;54.70;;;;;;5035853;28;20033;-64
2023/12/01 05:10:14;;;;;;;0.80;0.80;;;19.00;54.70;;;;;;5035682;28;20033;-64
2023/12/01 05:12:54;;;;;;;0.90;0.70;;;19.00;54.70;;;;;;5039644;28;20029;-63
2023/12/01 05:15:24;;;;;;;1.05;0.77;;;19.00;54.80;;;;;;5039226;28;20109;-69
2023/12/01 05:17:49;;;;;;;;;;;19.00;54.80;;;;;;5040116;28;20037;-69
2023/12/01 05:20:17;;;;;;;1.08;0.80;;;19.00;54.90;;;;;;5039065;28;19961;-69
2023/12/01 05:22:47;;;;;;;0.88;0.70;;;19.00;54.80;;;;;;5020890;28;20423;-69
2023/12/01 05:25:16;;;;;;;;;;;19.00;54.80;;;;;;5039820;28;20056;-69
2023/12/01 05:27:52;;;;;;;1.58;0.90;;;19.00;54.90;;;;;;5038903;28;19923;-70
2023/12/01 05:30:21;;;;;;;0.73;0.70;;;19.00;54.90;;;;;;5038966;28;20044;-69
2023/12/01 05:32:48;;;;;;;1.38;0.73;;;19.00;54.90;;;;;;5041761;28;20022;-69
2023/12/01 05:35:15;;;;;;;1.17;0.80;;;19.00;55.00;;;;;;5037258;28;20025;-70
2023/12/01 05:37:47;;;;;;;0.75;0.63;;;19.00;55.00;;;;;;5037539;28;20338;-69
2023/12/01 05:40:14;;;;;;;1.35;0.80;;;18.90;55.00;;;;;;5038795;28;20021;-70
2023/12/01 05:42:44;;;;;;;0.93;0.80;;;18.90;55.10;;;;;;5038451;28;20037;-70
2023/12/01 05:45:11;;;;;;;0.65;0.65;;;18.90;55.10;;;;;;5035661;28;20371;-70
2023/12/01 05:47:47;;;;;;;0.70;0.70;;;18.90;55.20;;;;;;5038560;28;20519;-70
2023/12/01 05:50:17;;;;;;;0.95;0.85;;;18.90;55.20;;;;;;5037122;28;20038;-69
2023/12/01 05:52:45;;;;;;;0.60;0.60;;;18.90;55.20;;;;;;5035932;28;20120;-69
2023/12/01 05:55:15;;;;;;;1.10;0.75;;;18.90;55.20;;;;;;5036931;28;20477;-71
2023/12/01 05:57:42;;;;;;;1.17;0.77;;;18.90;55.30;;;;;;5038071;28;20051;-71
2023/12/01 06:00:15;;;;;;;1.23;0.73;;;18.90;55.30;;;;;;5039361;28;20036;-70
2023/12/01 06:02:42;;;;;;;0.88;0.70;;;18.90;55.30;;;;;;5037246;28;20022;-70
2023/12/01 06:05:08;;;;;;;0.90;0.70;;;18.90;55.30;;;;;;5023816;28;20055;-69
2023/12/01 06:07:36;;;;;;;1.15;0.80;;;18.90;55.40;;;;;;5038150;28;20477;-64
2023/12/01 06:10:03;;;;;;;0.70;0.70;;;18.90;55.40;;;;;;5037304;28;20067;-63
2023/12/01 06:12:29;;;;;;;0.98;0.70;;;18.90;55.40;;;;;;5038660;28;20368;-65
2023/12/01 06:14:55;;;;;;;0.88;0.80;;;18.80;55.50;;;;;;5037742;28;20093;-63
2023/12/01 06:17:20;;;;;;;0.70;0.70;;;18.90;55.50;;;;;;5038428;28;20108;-65
2023/12/01 06:19:46;;;;;;;0.93;0.70;;;18.90;55.60;;;;;;5038971;28;20026;-63
2023/12/01 06:22:11;;;;;;;0.88;0.60;;;18.80;55.50;;;;;;5020602;28;20438;-63
2023/12/01 06:24:37;;;;;;;0.90;0.75;;;18.80;55.50;;;;;;5038177;28;20029;-63
2023/12/01 06:27:04;;;;;;;0.70;0.70;;;18.80;55.60;;;;;;5039330;28;20041;-72
2023/12/01 06:29:32;;;;;;;0.90;0.70;;;18.80;55.60;;;;;;5039362;28;20477;-69
2023/12/01 06:31:58;;;;;;;0.93;0.75;;;18.80;55.70;;;;;;5039635;28;20132;-70
2023/12/01 06:34:24;;;;;;;1.10;0.90;;;18.80;56.50;;;;;;5037760;28;20108;-70
2023/12/01 06:36:49;;;;;;;2.50;1.00;;;18.90;57.20;;;;;;5035963;28;20098;-62
2023/12/01 06:39:15;;;;;;;1.67;1.17;;;19.20;57.20;;;;;;5036669;28;20496;-63
2023/12/01 06:41:41;;;;;;;1.17;0.80;;;19.40;56.60;;;;;;5035576;28;20030;-62
2023/12/01 06:44:07;;;;;;;1.90;1.00;;;19.60;56.90;;;;;;5034361;28;20025;-63
2023/12/01 06:46:33;;;;;;;1.30;0.88;;;19.80;56.80;;;;;;5039874;28;20032;-63
2023/12/01 06:48:59;;;;;;;1.58;0.90;;;20.00;56.70;;;;;;5038444;28;20055;-65
2023/12/01 06:51:25;;;;;;;1.98;0.90;;;20.10;56.60;;;;;;5034350;28;20600;-63
2023/12/01 06:53:51;;;;;;;2.03;0.95;;;20.20;56.60;;;;;;5020013;28;20036;-63
2023/12/01 06:56:17;;;;;;;1.45;0.85;;;20.30;56.00;;;;;;5040632;28;20021;-65
2023/12/01 06:58:42;;;;;;;0.95;0.77;;;20.30;54.70;;;;;;5021940;28;20036;-64
2023/12/01 07:01:08;;;;;;;1.33;0.93;;;20.20;54.50;;;;;;5037446;28;20029;-63
2023/12/01 07:03:33;;;;;;;1.42;0.80;;;20.10;54.50;;;;;;5023781;28;20037;-64
2023/12/01 07:05:59;;;;;;;1.20;1.00;;;20.10;55.20;;;;;;5035406;28;20066;-64
2023/12/01 07:08:25;;;;;;;1.70;1.00;;;20.20;55.30;;;;;;5035778;28;20032;-65
2023/12/01 07:10:51;;;;;;;1.50;0.93;;;20.50;55.00;;;;;;5037184;28;20036;-63
2023/12/01 07:13:17;;;;;;;1.20;0.90;;;20.70;54.80;;;;;;5037836;28;20116;-64
2023/12/01 07:15:43;;;;;;;1.25;0.85;;;20.90;54.40;;;;;;5038232;28;20166;-64
2023/12/01 07:18:09;;;;;;;1.55;0.93;;;21.10;54.10;;;;;;5018839;28;20022;-64
2023/12/01 07:20:35;;;;;;;0.93;0.80;;;21.20;53.80;;;;;;5037608;28;20628;-64
2023/12/01 07:23:01;;;;;;;1.55;1.10;;;21.40;53.40;;;;;;5034716;28;20062;-64
2023/12/01 07:25:26;;;;;;;1.67;1.00;;;21.40;53.00;;;;;;5017559;28;20910;-64
2023/12/01 07:28:00;;;;;;;2.28;1.00;;;21.50;53.20;;;;;;5037868;27;20029;-64
2023/12/01 07:30:29;;;;;;;1.50;1.00;;;21.50;53.50;;;;;;5037010;28;20381;-64
2023/12/01 07:32:57;;;;;;;1.00;0.90;;;21.50;53.60;;;;;;5037570;28;20028;-64
2023/12/01 07:35:22;;;;;;;2.45;0.90;;;21.60;53.60;;;;;;5038112;28;20101;-64
2023/12/01 07:37:51;;;;;;;1.80;1.02;;;21.80;54.00;;;;;;5034634;28;20108;-66
2023/12/01 07:40:19;;;;;;;2.40;1.05;;;22.00;53.40;;;;;;5036902;28;20494;-66
2023/12/01 07:42:46;;;;;;;2.13;1.00;;;22.10;53.50;;;;;;5035159;28;20030;-64
2023/12/01 07:45:17;;;;;;;1.58;1.00;;;22.20;52.90;;;;;;5035137;28;20085;-65
2023/12/01 07:47:52;;;;;;;1.70;1.00;;;22.30;53.00;;;;;;5036071;28;20030;-65
2023/12/01 07:50:19;;;;;;;1.38;1.00;;;22.50;53.00;;;;;;5027771;27;20495;-63
2023/12/01 07:52:46;;;;;;;1.27;0.80;;;22.60;52.70;;;;;;5036593;28;20033;-66
2023/12/01 07:55:12;;;;;;;1.35;0.80;;;22.60;52.70;;;;;;5036207;28;20488;-65
2023/12/01 07:57:38;;;;;;;1.00;0.80;;;22.50;52.70;;;;;;5034324;28;20025;-63
2023/12/01 08:00:05;;;;;;;1.58;1.00;;;22.40;52.90;;;;;;5036277;28;20041;-64
2023/12/01 08:02:31;;;;;;;1.35;0.90;;;22.40;53.20;;;;;;5036268;28;20025;-64
2023/12/01 08:04:57;;;;;;;1.83;0.90;;;22.30;53.10;;;;;;5035539;28;20115;-63
2023/12/01 08:07:23;;;;;;;1.23;0.90;;;22.30;53.00;;;;;;5036741;28;20111;-63
2023/12/01 08:09:48;;;;;;;1.27;0.93;;;22.30;53.10;;;;;;5035594;28;20131;-63
2023/12/01 08:12:16;;;;;;;2.15;0.85;;;22.30;53.10;;;;;;5035868;28;20140;-63
2023/12/01 08:14:41;;;;;;;2.17;0.80;;;22.30;53.40;;;;;;5034331;28;20037;-65
2023/12/01 08:17:07;;;;;;;1.10;0.70;;;22.20;53.10;;;;;;5032495;28;20036;-66
2023/12/01 08:19:33;;;;;;;1.58;0.77;;;22.30;53.20;;;;;;5037799;28;20117;-63
2023/12/01 08:21:59;;;;;;;2.28;0.80;;;22.20;53.40;;;;;;5034367;28;20022;-63
2023/12/01 08:24:25;;;;;;;1.00;0.70;;;22.30;53.70;;;;;;5035913;28;20081;-65
2023/12/01 08:26:51;;;;;;;1.33;0.80;;;22.30;53.80;;;;;;5035159;28;20029;-63
2023/12/01 08:29:17;;;;;;;1.38;1.05;;;22.20;54.20;;;;;;5037493;28;20022;-64
2023/12/01 08:31:45;;;;;;;2.28;1.10;;;22.30;52.70;;;;;;5035095;28;20091;-63
2023/12/01 08:34:10;;;;;;;2.33;1.20;;;22.30;51.80;;;;;;5034226;28;20536;-63
2023/12/01 08:36:36;;;;;;;2.13;1.20;;;22.30;51.30;;;;;;5035396;28;20029;-70
2023/12/01 08:39:02;;;;;;;1.77;1.13;;;22.20;51.00;;;;;;5032568;28;20383;-70
2023/12/01 08:41:28;;;;;;;1.85;1.10;;;22.20;51.00;;;;;;5037066;28;20021;-69
2023/12/01 08:43:53;;;;;;;1.52;1.10;;;22.20;51.00;;;;;;5036486;28;20059;-70
2023/12/01 08:46:19;;;;;;;2.78;1.25;;;22.10;50.80;;;;;;5036125;28;20385;-69
2023/12/01 08:48:45;;;;;;;1.80;1.10;;;22.10;50.80;;;;;;5034955;28;20060;-69
2023/12/01 08:51:10;;;;;;;3.00;1.20;;;22.10;50.80;;;;;;5034852;28;20041;-68
2023/12/01 08:53:36;;;;;;;2.10;1.10;;;22.00;50.70;;;;;;5036155;28;20023;-69
2023/12/01 08:56:01;;;;;;;3.28;1.13;;;22.00;50.70;;;;;;5035568;28;20036;-65
2023/12/01 08:58:27;;;;;;;2.78;1.20;;;22.00;50.70;;;;;;5037353;28;20917;-62
2023/12/01 09:00:53;;;;;;;2.22;1.30;;;22.00;50.80;;;;;;5033659;28;20053;-64
2023/12/01 09:03:18;;;;;;;4.35;1.25;;;21.90;50.70;;;;;;5037257;28;20086;-63
2023/12/01 09:05:44;;;;;;;1.88;1.20;;;21.90;50.80;;;;;;5037445;28;20049;-62
2023/12/01 09:08:11;;;;;;;1.83;1.20;;;21.90;50.90;;;;;;5036338;28;20033;-62
2023/12/01 09:10:37;;;;;;;2.28;1.23;;;21.90;50.90;;;;;;5036169;28;20049;-63
2023/12/01 09:13:03;;;;;;;1.98;1.10;;;21.90;50.90;;;;;;5033372;28;20053;-63
2023/12/01 09:15:29;;;;;;;2.03;1.10;;;21.80;50.90;;;;;;5034859;28;20033;-63
2023/12/01 09:17:55;;;;;;;1.83;1.10;;;21.80;51.10;;;;;;5034701;28;20525;-63
2023/12/01 09:20:21;;;;;;;1.90;1.30;;;21.80;51.00;;;;;;5034807;28;20112;-63
2023/12/01 09:22:47;;;;;;;1.85;1.20;;;21.90;51.10;;;;;;5034296;28;20036;-65
2023/12/01 09:25:13;;;;;;;1.88;1.30;;;21.90;51.00;;;;;;5035349;28;20034;-63
2023/12/01 09:27:41;;;;;;;2.05;1.33;;;21.90;51.00;;;;;;5035068;28;20052;-64
2023/12/01 09:30:16;;;;;;;2.47;1.50;;;21.90;51.00;;;;;;5037481;28;20029;-63
2023/12/01 09:32:42;;;;;;;2.05;1.27;;;22.00;51.10;;;;;;5082178;28;20174;-64
2023/12/01 09:35:08;;;;;;;2.22;1.20;;;22.00;50.90;;;;;;5034321;28;20454;-65
2023/12/01 09:37:33;;;;;;;1.73;1.13;;;22.00;50.80;;;;;;5036411;28;20037;-63
2023/12/01 09:40:03;;;;;;;2.35;1.30;;;22.00;50.70;;;;;;5035762;28;20495;-64
2023/12/01 09:42:32;;;;;;;3.38;1.35;;;21.90;50.70;;;;;;5034576;28;20022;-62
2023/12/01 09:44:58;;;;;;;2.45;1.40;;;21.90;50.70;;;;;;5033805;28;20173;-63
2023/12/01 09:47:26;;;;;;;3.15;1.30;;;21.90;50.80;;;;;;5034620;28;20021;-65
2023/12/01 09:49:52;;;;;;;1.60;1.10;;;21.90;50.90;;;;;;5033873;28;20059;-63
2023/12/01 09:52:18;;;;;;;3.08;1.10;;;21.80;50.90;;;;;;5032798;28;20106;-63
2023/12/01 09:54:43;;;;;;;1.70;1.00;;;21.80;50.80;;;;;;5035396;28;20032;-63
2023/12/01 09:57:09;;;;;;;1.85;1.40;;;21.80;51.00;;;;;;5035129;28;20025;-63
2023/12/01 09:59:36;;;;;;;2.08;1.20;;;21.80;51.20;;;;;;5036102;28;20406;-63
2023/12/01 10:02:03;;;;;;;2.00;1.10;;;21.90;51.20;;;;;;5036883;28;20044;-63
2023/12/01 10:04:29;;;;;;;1.90;1.15;;;22.10;51.10;;;;;;5042370;28;20341;-63
2023/12/01 10:06:57;;;;;;;1.75;1.13;;;22.10;50.90;;;;;;5038966;28;20029;-63
2023/12/01 10:09:27;;;;;;;2.40;1.40;;;22.20;50.60;;;;;;5038893;28;20025;-62
2023/12/01 10:12:09;;;;;;;1.67;1.30;;;22.30;50.40;;;;;;5038253;28;20033;-63
2023/12/01 10:14:36;;;;;;;1.95;1.30;;;22.40;50.10;;;;;;5039023;28;20021;-62
2023/12/01 10:17:07;;;;;;;2.03;1.10;;;22.50;50.00;;;;;;5034593;28;20029;-70
2023/12/01 10:19:33;;;;;;;2.70;1.35;;;22.60;49.80;;;;;;5040183;28;20013;-70
2023/12/01 10:22:00;;;;;;;2.22;1.30;;;22.70;49.50;;;;;;5038460;28;20038;-68
2023/12/01 10:24:26;;;;;;;2.83;1.45;;;22.80;49.40;;;;;;5036728;28;20129;-70
2023/12/01 10:26:55;;;;;;;2.35;1.40;;;22.80;49.70;;;;;;5038429;28;20488;-69
2023/12/01 10:29:24;;;;;;;1.73;1.20;;;23.00;49.60;;;;;;5038994;28;20135;-70
2023/12/01 10:31:50;;;;;;;2.20;1.30;;;23.10;49.50;;;;;;5036045;28;20026;-69
2023/12/01 10:34:16;;;;;;;2.40;1.50;;;23.20;49.20;;;;;;5034968;28;20422;-69
2023/12/01 10:36:42;;;;;;;1.60;1.20;;;23.40;49.20;;;;;;5037241;28;20077;-69
2023/12/01 10:39:10;;;;;;;2.20;1.38;;;23.50;49.20;;;;;;5036558;27;20078;-69
2023/12/01 10:41:40;;;;;;;2.35;1.42;;;23.50;49.00;;;;;;5027643;28;20470;-69
2023/12/01 10:44:06;;;;;;;2.35;1.55;;;23.60;48.90;;;;;;5037657;28;20033;-70
2023/12/01 10:46:34;;;;;;;2.80;1.50;;;23.70;48.80;;;;;;5036861;28;20044;-70
2023/12/01 10:49:01;;;;;;;2.20;1.40;;;23.70;47.80;;;;;;5037918;28;20081;-70
2023/12/01 10:51:28;;;;;;;2.65;1.50;;;23.70;47.70;;;;;;5033980;28;20027;-70
2023/12/01 10:53:57;;;;;;;2.22;1.45;;;23.60;47.60;;;;;;5037458;28;20033;-70
2023/12/01 10:56:24;;;;;;;2.40;1.65;;;23.60;47.70;;;;;;5036861;28;20021;-70
2023/12/01 10:58:53;;;;;;;2.58;1.55;;;23.50;47.60;;;;;;5037413;28;20033;-70
2023/12/01 11:01:22;;;;;;;3.05;1.33;;;23.50;47.80;;;;;;5036129;28;20017;-70
2023/12/01 11:03:48;;;;;;;2.28;1.30;;;23.50;48.40;;;;;;5040633;28;20113;-70
2023/12/01 11:06:33;;;;;;;2.70;1.30;;;23.50;48.40;;;;;;5037134;28;20124;-69
2023/12/01 11:09:30;;;;;;;3.10;1.50;;;23.70;48.40;;;;;;5038190;28;20447;-71
2023/12/01 11:12:13;;;;;;;2.38;1.42;;;23.80;48.20;;;;;;5036778;28;20154;-71
2023/12/01 11:14:40;;;;;;;2.95;1.20;;;23.90;47.90;;;;;;5037669;28;20081;-70
2023/12/01 11:17:06;;;;;;;2.17;1.35;;;24.00;48.10;;;;;;5035873;28;20021;-70
2023/12/01 11:19:38;;;;;;;3.30;1.85;;;24.10;47.80;;;;;;5035437;28;20135;-69
2023/12/01 11:22:27;;;;;;;2.17;1.50;;;24.10;47.30;;;;;;5017047;28;20025;-70
2023/12/01 11:24:54;;;;;;;2.80;1.60;;;24.00;47.20;;;;;;5036392;28;20040;-69
2023/12/01 11:27:19;;;;;;;3.00;1.60;;;23.80;47.10;;;;;;5037454;28;20392;-63
2023/12/01 11:30:07;;;;;;;2.40;1.70;;;23.80;47.20;;;;;;5038312;28;20029;-62
2023/12/01 11:32:38;;;;;;;4.15;1.80;;;23.70;47.30;;;;;;5037125;28;20544;-63
2023/12/01 11:35:09;;;;;;;2.42;1.60;;;23.70;47.40;;;;;;5035546;28;20108;-63
2023/12/01 11:37:56;;;;;;;2.67;1.67;;;23.60;47.50;;;;;;5035717;28;20081;-70
2023/12/01 11:40:22;;;;;;;2.28;1.50;;;23.50;47.60;;;;;;5036379;28;20029;-71
2023/12/01 11:42:50;;;;;;;3.95;1.88;;;23.50;47.60;;;;;;5019059;28;20392;-70
2023/12/01 11:45:15;;;;;;;2.63;1.67;;;23.40;47.70;;;;;;5035633;28;20036;-69
2023/12/01 11:47:41;;;;;;;3.20;1.70;;;23.40;47.70;;;;;;5016818;28;20030;-71
2023/12/01 11:50:12;;;;;;;2.55;1.48;;;23.40;47.90;;;;;;5036960;28;20021;-69
2023/12/01 11:52:38;;;;;;;2.05;1.25;;;23.30;48.10;;;;;;5035667;28;20108;-70
2023/12/01 11:55:15;;;;;;;2.25;1.40;;;23.30;48.40;;;;;;5037836;28;20540;-70
2023/12/01 11:57:50;;;;;;;1.83;1.17;;;23.20;48.40;;;;;;5037973;28;20014;-70
2023/12/01 12:00:16;;;;;;;1.85;1.27;;;23.20;48.60;;;;;;5035735;28;20749;-70
2023/12/01 12:02:42;;;;;;;2.30;1.40;;;23.20;48.70;;;;;;5038414;28;20018;-69
2023/12/01 12:05:08;;;;;;;3.15;1.60;;;23.20;49.00;;;;;;5019987;28;20029;-69
2023/12/01 12:07:35;;;;;;;2.72;1.70;;;23.20;48.70;;;;;;5034767;28;20036;-69
2023/12/01 12:10:01;;;;;;;2.03;1.52;;;23.10;48.50;;;;;;5037109;28;20030;-69
2023/12/01 12:12:27;;;;;;;2.38;1.60;;;23.10;48.60;;;;;;5032029;28;20394;-69
2023/12/01 12:14:55;;;;;;;4.10;1.73;;;23.10;48.60;;;;;;5037042;28;20033;-69
2023/12/01 12:17:22;;;;;;;3.65;1.90;;;23.10;48.70;;;;;;5019924;28;20029;-68
2023/12/01 12:19:47;;;;;;;4.10;1.63;;;23.00;48.80;;;;;;5036168;28;20108;-67
2023/12/01 12:22:13;;;;;;;2.72;1.60;;;23.00;48.80;;;;;;5030388;28;20155;-68
2023/12/01 12:24:42;;;;;;;2.80;1.67;;;23.00;49.00;;;;;;5035562;28;20033;-69
2023/12/01 12:27:07;;;;;;;2.43;1.60;;;23.00;49.10;;;;;;5033573;28;20504;-69
2023/12/01 12:29:34;;;;;;;2.00;1.40;;;23.00;49.20;;;;;;5037556;28;20259;-68
2023/12/01 12:32:01;;;;;;;2.25;1.52;;;22.90;49.20;;;;;;5019759;28;20040;-69
2023/12/01 12:34:27;;;;;;;2.50;1.60;;;22.90;49.40;;;;;;5036159;28;20022;-69
2023/12/01 12:36:53;;;;;;;2.88;1.63;;;22.80;49.60;;;;;;5035527;28;20037;-69
2023/12/01 12:39:23;;;;;;;2.33;1.63;;;22.90;49.70;;;;;;5035871;28;20484;-69
2023/12/01 12:41:52;;;;;;;2.65;1.55;;;22.80;49.60;;;;;;5034026;28;20527;-69
2023/12/01 12:44:18;;;;;;;2.20;1.60;;;22.80;49.70;;;;;;5034979;28;20029;-69
2023/12/01 12:46:57;;;;;;;2.03;1.48;;;22.80;49.70;;;;;;5036436;28;20034;-63
2023/12/01 12:49:23;;;;;;;2.83;1.70;;;22.80;49.80;;;;;;5034071;28;20519;-65